createdAt,value
2017-10-08T00:00:45.235Z,9.20
2017-10-08T00:03:12.943Z,9.20
2017-10-08T00:05:40.627Z,9.30
2017-10-08T00:08:08.275Z,9.30
2017-10-08T00:10:35.967Z,9.30
2017-10-08T00:13:03.620Z,9.40
2017-10-08T00:15:31.283Z,9.40
2017-10-08T00:17:59.057Z,9.40
2017-10-08T00:20:26.760Z,9.50
2017-10-08T00:22:54.402Z,9.50
2017-10-08T00:25:22.307Z,9.40
2017-10-08T00:27:50.053Z,9.50
2017-10-08T00:30:17.699Z,9.50
2017-10-08T00:32:45.483Z,9.50
2017-10-08T00:35:13.139Z,9.50
2017-10-08T00:37:40.832Z,9.50
2017-10-08T00:40:08.578Z,9.40
2017-10-08T00:42:36.326Z,9.40
2017-10-08T00:45:04.176Z,9.40
2017-10-08T00:47:31.879Z,9.40
2017-10-08T00:49:59.536Z,9.40
2017-10-08T00:52:27.315Z,9.40
2017-10-08T00:54:55.040Z,9.30
2017-10-08T00:57:22.815Z,9.30
2017-10-08T00:59:50.559Z,9.30
2017-10-08T01:02:18.433Z,9.30
2017-10-08T01:04:46.155Z,9.30
2017-10-08T01:07:13.902Z,9.30
2017-10-08T01:09:41.659Z,9.20
2017-10-08T01:12:09.398Z,9.20
2017-10-08T01:14:37.079Z,9.30
2017-10-08T01:17:05.198Z,9.30
2017-10-08T01:19:32.917Z,9.30
2017-10-08T01:22:00.694Z,9.30
2017-10-08T01:24:28.543Z,9.30
2017-10-08T01:26:56.267Z,9.30
2017-10-08T01:29:24.043Z,9.30
2017-10-08T01:31:51.889Z,9.40
2017-10-08T01:34:19.602Z,9.30
2017-10-08T01:36:47.322Z,9.30
2017-10-08T01:39:15.131Z,9.30
2017-10-08T01:41:42.819Z,9.30
2017-10-08T01:44:10.522Z,9.40
2017-10-08T01:46:38.271Z,9.50
2017-10-08T01:49:05.942Z,9.60
2017-10-08T01:51:34.075Z,9.60
2017-10-08T01:54:01.819Z,9.70
2017-10-08T01:56:29.567Z,9.60
2017-10-08T01:58:57.239Z,9.60
2017-10-08T02:01:25.472Z,9.50
2017-10-08T02:03:53.163Z,9.50
2017-10-08T02:06:20.951Z,9.50
2017-10-08T02:08:48.731Z,9.50
2017-10-08T02:11:16.375Z,9.50
2017-10-08T02:13:44.106Z,9.50
2017-10-08T02:16:11.956Z,9.50
2017-10-08T02:21:13.697Z,9.40
2017-10-08T02:23:41.345Z,9.40
2017-10-08T02:26:08.992Z,9.40
2017-10-08T02:28:36.734Z,9.40
2017-10-08T02:31:04.480Z,9.40
2017-10-08T02:33:32.229Z,9.30
2017-10-08T02:36:00.180Z,9.30
2017-10-08T02:38:27.928Z,9.20
2017-10-08T02:40:55.572Z,9.20
2017-10-08T02:43:23.286Z,9.10
2017-10-08T02:45:50.969Z,9.10
2017-10-08T02:48:18.715Z,9.10
2017-10-08T02:50:46.415Z,9.10
2017-10-08T02:53:14.107Z,9.10
2017-10-08T02:55:41.853Z,9.00
2017-10-08T02:58:09.600Z,9.00
2017-10-08T03:00:37.239Z,9.00
2017-10-08T03:03:04.992Z,9.00
2017-10-08T03:05:32.699Z,8.90
2017-10-08T03:08:00.355Z,9.00
2017-10-08T03:10:28.029Z,8.90
2017-10-08T03:12:55.731Z,8.90
2017-10-08T03:15:23.439Z,8.90
2017-10-08T03:17:51.505Z,8.90
2017-10-08T03:20:19.738Z,8.90
2017-10-08T03:22:47.485Z,8.90
2017-10-08T03:25:15.232Z,8.80
2017-10-08T03:27:43.023Z,8.70
2017-10-08T03:30:10.673Z,8.50
2017-10-08T03:32:38.371Z,8.40
2017-10-08T03:35:06.208Z,8.30
2017-10-08T03:37:33.851Z,8.20
2017-10-08T03:40:01.529Z,8.00
2017-10-08T03:42:29.374Z,8.00
2017-10-08T03:44:57.063Z,7.90
2017-10-08T03:47:24.758Z,7.90
2017-10-08T03:49:52.502Z,7.90
2017-10-08T03:52:20.163Z,7.80
2017-10-08T03:54:47.802Z,7.90
2017-10-08T03:57:15.599Z,7.90
2017-10-08T03:59:43.257Z,8.00
2017-10-08T04:02:10.930Z,8.00
2017-10-08T04:04:38.727Z,8.00
2017-10-08T04:07:06.425Z,8.00
2017-10-08T04:09:34.075Z,8.00
2017-10-08T04:12:01.920Z,8.00
2017-10-08T04:14:29.563Z,7.90
2017-10-08T04:16:57.203Z,8.00
2017-10-08T04:19:25.062Z,8.00
2017-10-08T04:21:52.703Z,8.00
2017-10-08T04:24:20.651Z,8.00
2017-10-08T04:26:48.343Z,8.00
2017-10-08T04:29:15.983Z,8.00
2017-10-08T04:31:44.105Z,8.00
2017-10-08T04:34:11.790Z,8.00
2017-10-08T04:36:39.906Z,8.00
2017-10-08T04:39:07.653Z,8.10
2017-10-08T04:41:35.605Z,8.10
2017-10-08T04:44:03.260Z,8.00
2017-10-08T04:46:30.891Z,8.10
2017-10-08T04:48:58.591Z,8.10
2017-10-08T04:51:26.230Z,8.10
2017-10-08T04:53:53.935Z,8.10
2017-10-08T04:56:21.639Z,8.20
2017-10-08T04:58:49.326Z,8.20
2017-10-08T05:01:16.963Z,8.20
2017-10-08T05:03:44.654Z,8.20
2017-10-08T05:06:12.708Z,8.20
2017-10-08T05:08:40.756Z,8.20
2017-10-08T05:11:09.062Z,8.20
2017-10-08T05:13:36.836Z,8.20
2017-10-08T05:16:04.506Z,8.20
2017-10-08T05:18:32.839Z,8.20
2017-10-08T05:21:00.486Z,8.20
2017-10-08T05:23:28.129Z,8.20
2017-10-08T05:25:55.878Z,8.30
2017-10-08T05:28:23.524Z,8.30
2017-10-08T05:30:51.271Z,8.30
2017-10-08T05:33:18.992Z,8.30
2017-10-08T05:35:46.664Z,8.30
2017-10-08T05:38:14.411Z,8.30
2017-10-08T05:40:42.162Z,8.40
2017-10-08T05:43:09.799Z,8.40
2017-10-08T05:45:37.453Z,8.40
2017-10-08T05:48:05.282Z,8.50
2017-10-08T05:50:32.919Z,8.50
2017-10-08T05:53:00.563Z,8.60
2017-10-08T05:55:28.436Z,8.60
2017-10-08T05:57:56.082Z,8.60
2017-10-08T06:00:23.831Z,8.60
2017-10-08T06:02:51.630Z,8.50
2017-10-08T06:05:19.325Z,8.60
2017-10-08T06:07:46.957Z,8.60
2017-10-08T06:10:15.071Z,8.60
2017-10-08T06:12:42.718Z,8.60
2017-10-08T06:15:10.519Z,8.60
2017-10-08T06:17:38.279Z,8.60
2017-10-08T06:20:05.951Z,8.60
2017-10-08T06:22:33.659Z,8.60
2017-10-08T06:25:01.355Z,8.60
2017-10-08T06:27:29.049Z,8.60
2017-10-08T06:29:56.797Z,8.60
2017-10-08T06:32:24.489Z,8.60
2017-10-08T06:34:52.192Z,8.70
2017-10-08T06:37:19.939Z,8.70
2017-10-08T06:39:47.789Z,8.70
2017-10-08T06:42:15.535Z,8.70
2017-10-08T06:44:43.282Z,8.70
2017-10-08T06:47:11.062Z,8.70
2017-10-08T06:49:39.187Z,8.70
2017-10-08T06:52:06.830Z,8.70
2017-10-08T06:54:34.558Z,8.70
2017-10-08T06:57:02.216Z,8.80
2017-10-08T06:59:29.859Z,8.80
2017-10-08T07:01:57.569Z,8.70
2017-10-08T07:04:25.202Z,8.80
2017-10-08T07:06:52.910Z,8.80
2017-10-08T07:09:20.627Z,8.80
2017-10-08T07:11:48.271Z,8.80
2017-10-08T07:14:15.921Z,8.80
2017-10-08T07:16:43.811Z,8.90
2017-10-08T07:19:11.450Z,8.90
2017-10-08T07:21:39.183Z,8.90
2017-10-08T07:24:06.907Z,8.90
2017-10-08T07:26:34.577Z,8.90
2017-10-08T07:29:02.326Z,8.90
2017-10-08T07:31:30.074Z,8.90
2017-10-08T07:33:57.822Z,8.90
2017-10-08T07:36:25.572Z,8.80
2017-10-08T07:38:53.317Z,8.90
2017-10-08T07:41:21.064Z,8.90
2017-10-08T07:43:48.812Z,8.90
2017-10-08T07:46:16.529Z,8.90
2017-10-08T07:48:44.203Z,8.90
2017-10-08T07:51:11.951Z,9.10
2017-10-08T07:53:39.651Z,9.20
2017-10-08T07:56:07.333Z,9.30
2017-10-08T07:58:35.091Z,9.40
2017-10-08T08:01:02.836Z,9.50
2017-10-08T08:03:30.486Z,9.50
2017-10-08T08:05:58.332Z,9.50
2017-10-08T08:08:26.111Z,9.50
2017-10-08T08:10:54.239Z,9.40
2017-10-08T08:13:25.791Z,9.40
2017-10-08T08:15:53.522Z,9.30
2017-10-08T08:18:21.494Z,9.30
2017-10-08T08:20:49.630Z,9.40
2017-10-08T08:23:17.377Z,9.40
2017-10-08T08:25:45.019Z,9.50
2017-10-08T08:28:12.731Z,9.60
2017-10-08T08:30:40.387Z,9.60
2017-10-08T08:33:08.029Z,9.60
2017-10-08T08:35:35.731Z,9.60
2017-10-08T08:38:03.776Z,9.70
2017-10-08T08:40:31.427Z,9.70
2017-10-08T08:42:59.527Z,9.80
2017-10-08T08:45:27.179Z,9.80
2017-10-08T08:47:54.826Z,9.80
2017-10-08T08:50:22.532Z,9.80
2017-10-08T08:52:50.566Z,9.70
2017-10-08T08:55:18.215Z,9.70
2017-10-08T08:57:46.334Z,9.80
2017-10-08T09:00:13.998Z,9.80
2017-10-08T09:02:41.745Z,9.80
2017-10-08T09:05:09.492Z,9.80
2017-10-08T09:07:37.139Z,9.90
2017-10-08T09:10:04.849Z,9.90
2017-10-08T09:12:32.538Z,9.90
2017-10-08T09:15:00.184Z,9.90
2017-10-08T09:17:27.920Z,9.90
2017-10-08T09:19:55.632Z,9.90
2017-10-08T09:22:23.571Z,10.00
2017-10-08T09:24:51.223Z,9.90
2017-10-08T09:27:18.996Z,9.90
2017-10-08T09:29:46.696Z,9.90
2017-10-08T09:32:14.791Z,10.00
2017-10-08T09:34:42.543Z,10.00
2017-10-08T09:37:10.186Z,10.00
2017-10-08T09:39:37.835Z,10.10
2017-10-08T09:42:05.575Z,10.10
2017-10-08T09:44:33.226Z,10.10
2017-10-08T09:47:00.891Z,10.10
2017-10-08T09:49:28.609Z,10.10
2017-10-08T09:51:56.246Z,10.20
2017-10-08T09:54:23.928Z,10.20
2017-10-08T09:56:51.677Z,10.30
2017-10-08T09:59:19.424Z,10.30
2017-10-08T10:01:47.170Z,10.30
2017-10-08T10:04:15.021Z,10.40
2017-10-08T10:06:42.767Z,10.40
2017-10-08T10:09:10.515Z,10.40
2017-10-08T10:11:38.311Z,10.50
2017-10-08T10:14:05.968Z,10.50
2017-10-08T10:16:33.622Z,10.50
2017-10-08T10:19:01.327Z,10.50
2017-10-08T10:21:29.385Z,10.50
2017-10-08T10:23:57.440Z,10.50
2017-10-08T10:26:25.757Z,10.50
2017-10-08T10:28:53.433Z,10.50
2017-10-08T10:31:21.572Z,10.70
2017-10-08T10:33:49.299Z,10.70
2017-10-08T10:36:16.964Z,10.70
2017-10-08T10:38:44.713Z,10.70
2017-10-08T10:41:12.519Z,10.70
2017-10-08T10:43:40.207Z,10.70
2017-10-08T10:46:07.858Z,10.80
2017-10-08T10:48:35.564Z,10.70
2017-10-08T10:51:03.259Z,10.70
2017-10-08T10:53:31.343Z,10.70
2017-10-08T10:55:59.168Z,10.70
2017-10-08T10:58:27.304Z,10.70
2017-10-08T11:00:54.959Z,10.70
2017-10-08T11:03:22.887Z,10.70
2017-10-08T11:05:50.650Z,10.70
2017-10-08T11:08:18.302Z,10.80
2017-10-08T11:10:46.043Z,10.80
2017-10-08T11:13:13.771Z,10.70
2017-10-08T11:15:41.439Z,10.70
2017-10-08T11:18:09.151Z,10.70
2017-10-08T11:20:36.806Z,10.70
2017-10-08T11:23:04.459Z,10.80
2017-10-08T11:25:32.151Z,10.80
2017-10-08T11:28:00.272Z,10.80
2017-10-08T11:30:27.937Z,10.80
2017-10-08T11:32:55.643Z,10.90
2017-10-08T11:35:23.312Z,10.90
2017-10-08T11:37:50.974Z,10.90
2017-10-08T11:40:19.091Z,10.90
2017-10-08T11:42:46.744Z,10.90
2017-10-08T11:45:14.399Z,10.90
2017-10-08T11:47:42.090Z,10.90
2017-10-08T11:50:09.795Z,11.00
2017-10-08T11:52:37.490Z,11.00
2017-10-08T11:55:05.251Z,11.10
2017-10-08T11:57:32.895Z,11.10
2017-10-08T12:00:00.580Z,11.10
2017-10-08T12:02:28.283Z,11.10
2017-10-08T12:04:55.939Z,11.20
2017-10-08T12:07:23.619Z,11.20
2017-10-08T12:09:51.334Z,11.20
2017-10-08T12:12:19.019Z,11.30
2017-10-08T12:14:46.683Z,11.40
2017-10-08T12:17:14.783Z,11.60
2017-10-08T12:19:42.435Z,11.60
2017-10-08T12:22:10.076Z,11.60
2017-10-08T12:24:37.951Z,11.70
2017-10-08T12:27:05.800Z,11.70
2017-10-08T12:29:33.455Z,11.60
2017-10-08T12:32:01.243Z,11.60
2017-10-08T12:34:28.899Z,11.70
2017-10-08T12:36:56.815Z,11.70
2017-10-08T12:39:24.948Z,11.50
2017-10-08T12:41:52.695Z,11.50
2017-10-08T12:44:20.343Z,11.40
2017-10-08T12:46:48.066Z,11.40
2017-10-08T12:49:15.834Z,11.40
2017-10-08T12:51:43.486Z,11.40
2017-10-08T12:54:11.178Z,11.40
2017-10-08T12:56:38.835Z,11.40
2017-10-08T12:59:06.748Z,11.40
2017-10-08T13:01:34.947Z,11.40
2017-10-08T13:04:02.599Z,11.40
2017-10-08T13:06:30.268Z,11.40
2017-10-08T13:08:57.963Z,11.40
2017-10-08T13:11:25.619Z,11.40
2017-10-08T13:13:53.309Z,11.30
2017-10-08T13:16:21.152Z,11.20
2017-10-08T13:18:48.816Z,11.10
2017-10-08T13:21:16.550Z,11.00
2017-10-08T13:23:44.400Z,11.10
2017-10-08T13:26:12.054Z,11.00
2017-10-08T13:28:39.703Z,11.10
2017-10-08T13:31:07.405Z,11.10
2017-10-08T13:33:35.060Z,11.10
2017-10-08T13:36:02.725Z,11.10
2017-10-08T13:38:30.506Z,11.10
2017-10-08T13:40:58.220Z,11.20
2017-10-08T13:43:25.968Z,11.30
2017-10-08T13:45:53.788Z,11.40
2017-10-08T13:48:21.452Z,11.50
2017-10-08T13:50:49.102Z,11.50
2017-10-08T13:53:16.804Z,11.50
2017-10-08T13:55:44.458Z,11.70
2017-10-08T13:58:12.107Z,11.70
2017-10-08T14:00:39.803Z,11.80
2017-10-08T14:03:07.538Z,11.80
2017-10-08T14:05:35.286Z,11.80
2017-10-08T14:08:02.994Z,11.90
2017-10-08T14:10:30.642Z,11.90
2017-10-08T14:12:58.326Z,11.80
2017-10-08T14:15:26.052Z,11.80
2017-10-08T14:17:53.718Z,11.90
2017-10-08T14:20:21.465Z,12.00
2017-10-08T14:22:49.211Z,12.00
2017-10-08T14:25:16.864Z,12.00
2017-10-08T14:27:44.514Z,12.00
2017-10-08T14:30:12.295Z,12.00
2017-10-08T14:32:39.941Z,12.00
2017-10-08T14:35:07.586Z,12.00
2017-10-08T14:37:35.387Z,12.00
2017-10-08T14:40:03.043Z,12.00
2017-10-08T14:42:30.699Z,12.00
2017-10-08T14:44:58.422Z,12.00
2017-10-08T14:47:26.073Z,12.00
2017-10-08T14:49:53.723Z,12.10
2017-10-08T14:52:21.418Z,12.10
2017-10-08T14:54:49.071Z,12.10
2017-10-08T14:57:16.854Z,12.10
2017-10-08T14:59:44.656Z,12.10
2017-10-08T15:02:12.303Z,12.10
2017-10-08T15:04:40.002Z,12.10
2017-10-08T15:07:07.844Z,12.10
2017-10-08T15:09:35.555Z,12.10
2017-10-08T15:12:03.289Z,12.10
2017-10-08T15:14:31.039Z,12.00
2017-10-08T15:16:58.739Z,12.00
2017-10-08T15:19:26.428Z,12.10
2017-10-08T15:21:54.186Z,12.00
2017-10-08T15:24:21.842Z,12.00
2017-10-08T15:26:49.556Z,11.90
2017-10-08T15:29:17.776Z,11.80
2017-10-08T15:31:45.422Z,11.70
2017-10-08T15:34:13.168Z,11.70
2017-10-08T15:36:41.003Z,11.60
2017-10-08T15:39:08.655Z,11.60
2017-10-08T15:41:36.296Z,11.60
2017-10-08T15:44:04.119Z,11.50
2017-10-08T15:46:31.762Z,11.50
2017-10-08T15:48:59.551Z,11.40
2017-10-08T15:51:27.298Z,11.40
2017-10-08T15:53:54.954Z,11.40
2017-10-08T15:56:22.600Z,11.30
2017-10-08T15:58:50.327Z,11.30
2017-10-08T16:01:17.976Z,11.20
2017-10-08T16:03:45.626Z,11.10
2017-10-08T16:06:13.351Z,11.10
2017-10-08T16:08:41.015Z,11.10
2017-10-08T16:11:08.672Z,11.00
2017-10-08T16:13:36.475Z,11.00
2017-10-08T16:16:04.154Z,10.90
2017-10-08T16:18:31.804Z,10.90
2017-10-08T16:20:59.547Z,10.80
2017-10-08T16:23:27.202Z,10.80
2017-10-08T16:25:54.851Z,10.80
2017-10-08T16:28:22.588Z,10.70
2017-10-08T16:30:50.239Z,10.70
2017-10-08T16:33:17.882Z,10.60
2017-10-08T16:35:45.623Z,10.60
2017-10-08T16:38:13.371Z,10.60
2017-10-08T16:40:41.028Z,10.60
2017-10-08T16:43:09.298Z,10.60
2017-10-08T16:45:37.351Z,10.60
2017-10-08T16:48:05.486Z,10.60
2017-10-08T16:50:33.184Z,10.60
2017-10-08T16:53:00.842Z,10.60
2017-10-08T16:55:28.527Z,10.50
2017-10-08T16:57:56.239Z,10.50
2017-10-08T17:00:24.158Z,10.40
2017-10-08T17:02:51.823Z,10.40
2017-10-08T17:05:19.546Z,10.30
2017-10-08T17:07:47.671Z,10.30
2017-10-08T17:10:15.418Z,10.30
2017-10-08T17:12:43.143Z,10.20
2017-10-08T17:15:10.911Z,10.20
2017-10-08T17:17:38.567Z,10.30
2017-10-08T17:20:06.294Z,10.20
2017-10-08T17:22:33.947Z,10.20
2017-10-08T17:25:01.603Z,10.20
2017-10-08T17:27:29.306Z,10.20
2017-10-08T17:29:56.963Z,10.20
2017-10-08T17:32:24.641Z,10.20
2017-10-08T17:34:52.395Z,10.20
2017-10-08T17:37:20.127Z,10.20
2017-10-08T17:39:47.849Z,10.20
2017-10-08T17:42:15.622Z,10.20
2017-10-08T17:44:43.280Z,10.20
2017-10-08T17:47:11.343Z,10.10
2017-10-08T17:49:39.676Z,10.10
2017-10-08T17:52:07.430Z,10.10
2017-10-08T17:54:35.176Z,10.10
2017-10-08T17:57:02.916Z,10.10
2017-10-08T17:59:30.576Z,10.10
2017-10-08T18:01:58.255Z,10.10
2017-10-08T18:04:26.070Z,10.10
2017-10-08T18:06:53.766Z,10.20
2017-10-08T18:09:21.487Z,10.20
2017-10-08T18:11:49.660Z,10.20
2017-10-08T18:14:17.366Z,10.10
2017-10-08T18:16:45.067Z,10.20
2017-10-08T18:19:12.819Z,10.10
2017-10-08T18:21:40.604Z,10.20
2017-10-08T18:24:08.306Z,10.10
2017-10-08T18:26:36.139Z,10.20
2017-10-08T18:29:03.807Z,10.10
2017-10-08T18:31:31.494Z,10.10
2017-10-08T18:33:59.269Z,10.20
2017-10-08T18:36:27.355Z,10.10
2017-10-08T18:38:55.059Z,10.10
2017-10-08T18:41:23.224Z,10.10
2017-10-08T18:43:51.283Z,10.20
2017-10-08T18:46:19.331Z,10.20
2017-10-08T18:48:47.417Z,10.20
2017-10-08T18:51:15.107Z,10.20
2017-10-08T18:53:43.087Z,10.20
2017-10-08T18:56:11.192Z,10.20
2017-10-08T18:58:38.867Z,10.20
2017-10-08T19:01:06.527Z,10.10
2017-10-08T19:03:34.643Z,10.10
2017-10-08T19:06:02.292Z,10.10
2017-10-08T19:08:30.867Z,10.10
2017-10-08T19:10:58.657Z,10.10
2017-10-08T19:13:26.712Z,10.00
2017-10-08T19:15:54.426Z,10.10
2017-10-08T19:18:22.174Z,10.00
2017-10-08T19:20:49.920Z,10.00
2017-10-08T19:23:17.575Z,10.00
2017-10-08T19:25:45.312Z,10.00
2017-10-08T19:28:12.966Z,10.00
2017-10-08T19:30:40.704Z,10.00
2017-10-08T19:33:08.451Z,10.00
2017-10-08T19:35:36.103Z,10.00
2017-10-08T19:38:04.431Z,9.90
2017-10-08T19:40:32.203Z,10.00
2017-10-08T19:42:59.862Z,10.00
2017-10-08T19:45:27.597Z,10.00
2017-10-08T19:47:55.308Z,9.90
2017-10-08T19:50:23.152Z,9.90
2017-10-08T19:52:50.840Z,9.90
2017-10-08T19:55:18.588Z,9.90
2017-10-08T19:57:46.334Z,9.90
2017-10-08T20:00:14.023Z,9.90
2017-10-08T20:02:42.025Z,9.90
2017-10-08T20:05:09.672Z,9.90
2017-10-08T20:07:37.425Z,9.90
2017-10-08T20:10:05.130Z,9.90
2017-10-08T20:12:32.800Z,9.90
2017-10-08T20:15:00.569Z,9.90
2017-10-08T20:17:28.311Z,9.90
2017-10-08T20:19:55.959Z,9.80
2017-10-08T20:22:23.707Z,9.80
2017-10-08T20:24:51.424Z,9.90
2017-10-08T20:27:19.088Z,9.80
2017-10-08T20:29:46.775Z,9.90
2017-10-08T20:32:14.886Z,9.90
2017-10-08T20:34:43.671Z,9.90
2017-10-08T20:37:11.326Z,9.90
2017-10-08T20:39:39.155Z,9.90
2017-10-08T20:42:06.813Z,9.90
2017-10-08T20:44:34.559Z,9.90
2017-10-08T20:47:02.267Z,9.90
2017-10-08T20:49:29.949Z,9.80
2017-10-08T20:51:57.716Z,9.80
2017-10-08T20:54:25.823Z,9.80
2017-10-08T20:56:53.479Z,9.80
2017-10-08T20:59:21.149Z,9.80
2017-10-08T21:01:48.867Z,9.80
2017-10-08T21:04:16.516Z,9.80
2017-10-08T21:06:44.174Z,9.80
2017-10-08T21:09:11.898Z,9.80
2017-10-08T21:11:39.544Z,9.80
2017-10-08T21:14:07.332Z,9.80
2017-10-08T21:16:35.185Z,9.80
2017-10-08T21:19:03.049Z,9.80
2017-10-08T21:21:31.289Z,9.90
2017-10-08T21:23:59.035Z,9.90
2017-10-08T21:26:26.726Z,9.90
2017-10-08T21:28:54.376Z,9.90
2017-10-08T21:31:22.115Z,9.90
2017-10-08T21:33:49.763Z,9.90
2017-10-08T21:36:17.425Z,9.90
2017-10-08T21:38:45.140Z,9.90
2017-10-08T21:41:13.184Z,9.90
2017-10-08T21:43:41.231Z,9.90
2017-10-08T21:46:08.923Z,9.90
2017-10-08T21:48:36.574Z,9.90
2017-10-08T21:51:04.281Z,9.90
2017-10-08T21:53:32.510Z,9.90
2017-10-08T21:56:00.159Z,9.90
2017-10-08T21:58:27.903Z,9.90
2017-10-08T22:00:55.726Z,9.90
2017-10-08T22:03:23.666Z,9.90
2017-10-08T22:05:51.308Z,9.90
2017-10-08T22:08:19.011Z,9.90
2017-10-08T22:10:46.743Z,9.90
2017-10-08T22:13:14.491Z,9.90
2017-10-08T22:15:42.387Z,9.90
2017-10-08T22:18:10.035Z,9.80
2017-10-08T22:20:37.688Z,9.80
2017-10-08T22:23:05.479Z,9.80
2017-10-08T22:25:33.178Z,9.90
2017-10-08T22:28:00.827Z,9.80
2017-10-08T22:30:28.619Z,9.80
2017-10-08T22:32:56.263Z,9.80
2017-10-08T22:35:23.911Z,9.80
2017-10-08T22:37:51.627Z,9.90
2017-10-08T22:40:19.262Z,9.80
2017-10-08T22:42:46.910Z,9.80
2017-10-08T22:45:14.695Z,9.80
2017-10-08T22:47:42.445Z,9.80
2017-10-08T22:50:10.189Z,9.80
2017-10-08T22:52:37.887Z,9.80
2017-10-08T22:55:05.582Z,9.90
2017-10-08T22:57:33.328Z,9.80
2017-10-08T23:00:01.042Z,9.80
2017-10-08T23:02:28.691Z,9.80
2017-10-08T23:04:56.338Z,9.80
2017-10-08T23:07:24.055Z,9.80
2017-10-08T23:09:51.761Z,9.80
2017-10-08T23:12:19.507Z,9.80
2017-10-08T23:14:47.287Z,9.80
2017-10-08T23:17:14.964Z,9.80
2017-10-08T23:19:42.645Z,9.80
2017-10-08T23:22:10.495Z,9.80
2017-10-08T23:24:38.243Z,9.80
2017-10-08T23:27:05.990Z,9.80
2017-10-08T23:29:33.792Z,9.80
2017-10-08T23:32:01.484Z,9.80
2017-10-08T23:34:29.123Z,9.80
2017-10-08T23:36:56.826Z,9.80
2017-10-08T23:39:24.524Z,9.80
2017-10-08T23:41:52.170Z,9.80
2017-10-08T23:44:19.917Z,9.80
2017-10-08T23:46:47.663Z,9.80
2017-10-08T23:49:15.412Z,9.80
2017-10-08T23:51:43.595Z,9.80
2017-10-08T23:54:11.724Z,9.80
2017-10-08T23:56:39.471Z,9.80
2017-10-08T23:59:07.167Z,9.80
